createdAt,value
2022-09-14T00:02:17.824Z,75264.72
2022-09-14T00:04:44.577Z,75264.72
2022-09-14T00:07:11.294Z,75268.56
2022-09-14T00:09:38.010Z,75268.56
2022-09-14T00:12:04.810Z,75264.72
2022-09-14T00:14:31.580Z,75253.16
2022-09-14T00:16:58.316Z,75239.66
2022-09-14T00:19:27.134Z,75233.88
2022-09-14T00:21:59.029Z,75237.75
2022-09-14T00:24:30.739Z,75230.03
2022-09-14T00:26:57.867Z,75222.34
2022-09-14T00:29:25.303Z,75218.47
2022-09-14T00:31:52.163Z,75210.78
2022-09-14T00:34:19.143Z,75201.16
2022-09-14T00:36:48.255Z,75199.22
2022-09-14T00:39:16.186Z,75187.66
2022-09-14T00:41:45.372Z,75195.38
2022-09-14T00:44:11.991Z,75191.50
2022-09-14T00:46:40.159Z,75185.72
2022-09-14T00:49:12.037Z,75187.66
2022-09-14T00:51:44.830Z,75185.72
2022-09-14T00:54:11.769Z,75191.50
2022-09-14T00:56:38.467Z,75201.16
2022-09-14T00:59:13.162Z,75203.06
2022-09-14T01:01:40.134Z,75208.84
2022-09-14T01:04:07.151Z,75210.78
2022-09-14T01:06:53.527Z,75214.63
2022-09-14T01:09:43.526Z,75208.84
2022-09-14T01:12:20.563Z,75214.63
2022-09-14T01:15:05.518Z,75220.41
2022-09-14T01:17:38.002Z,75224.25
2022-09-14T01:20:25.978Z,75230.03
2022-09-14T01:23:13.428Z,75239.66
2022-09-14T01:26:09.414Z,75228.13
2022-09-14T01:28:41.141Z,75233.88
2022-09-14T01:31:18.412Z,75230.03
2022-09-14T01:34:10.368Z,75226.19
2022-09-14T01:36:39.594Z,75230.03
2022-09-14T01:39:07.661Z,75224.25
2022-09-14T01:41:35.948Z,75226.19
2022-09-14T01:44:15.914Z,75230.03
2022-09-14T01:46:50.520Z,75230.03
2022-09-14T01:49:43.663Z,75230.03
2022-09-14T01:52:36.455Z,75228.13
2022-09-14T01:55:12.773Z,75230.03
2022-09-14T01:57:42.276Z,75233.88
2022-09-14T02:00:12.615Z,75237.75
2022-09-14T02:02:39.508Z,75233.88
2022-09-14T02:05:15.228Z,75222.34
2022-09-14T02:07:42.098Z,75226.19
2022-09-14T02:10:13.385Z,75222.34
2022-09-14T02:12:40.917Z,75231.97
2022-09-14T02:15:11.200Z,75218.47
2022-09-14T02:17:38.797Z,75218.47
2022-09-14T02:20:08.316Z,75201.16
2022-09-14T02:22:35.721Z,75195.38
2022-09-14T02:25:03.449Z,75199.22
2022-09-14T02:27:31.359Z,75201.16
2022-09-14T02:29:58.580Z,75201.16
2022-09-14T02:32:42.139Z,75187.66
2022-09-14T02:35:40.111Z,75181.88
2022-09-14T02:38:29.862Z,75176.09
2022-09-14T02:40:56.561Z,75179.94
2022-09-14T02:43:32.817Z,75179.94
2022-09-14T02:46:30.596Z,75181.88
2022-09-14T02:49:04.449Z,75185.72
2022-09-14T02:51:38.191Z,75191.50
2022-09-14T02:54:57.299Z,75185.72
2022-09-14T02:57:24.536Z,75179.94
2022-09-14T02:59:53.972Z,75178.03
2022-09-14T03:02:21.027Z,75178.03
2022-09-14T03:04:47.839Z,75179.94
2022-09-14T03:07:14.586Z,75191.50
2022-09-14T03:09:41.256Z,75178.03
2022-09-14T03:12:08.025Z,75174.19
2022-09-14T03:14:34.943Z,75174.19
2022-09-14T03:17:01.638Z,75181.88
2022-09-14T03:19:28.400Z,75185.72
2022-09-14T03:21:55.134Z,75187.66
2022-09-14T03:24:22.052Z,75183.81
2022-09-14T03:26:52.208Z,75191.50
2022-09-14T03:29:19.006Z,75199.22
2022-09-14T03:31:46.013Z,75205.00
2022-09-14T03:34:12.995Z,75206.91
2022-09-14T03:36:39.987Z,75206.91
2022-09-14T03:39:06.687Z,75203.06
2022-09-14T03:41:33.392Z,75206.91
2022-09-14T03:44:00.111Z,75210.78
2022-09-14T03:46:26.974Z,75218.47
2022-09-14T03:48:55.150Z,75216.56
2022-09-14T03:51:22.277Z,75220.41
2022-09-14T03:53:49.003Z,75222.34
2022-09-14T03:56:18.200Z,75226.19
2022-09-14T03:58:46.180Z,75224.25
2022-09-14T04:01:16.523Z,75230.03
2022-09-14T04:03:43.654Z,75230.03
2022-09-14T04:06:11.148Z,75235.81
2022-09-14T04:08:41.198Z,75241.59
2022-09-14T04:11:13.346Z,75249.31
2022-09-14T04:13:41.463Z,75235.81
2022-09-14T04:16:08.702Z,75226.19
2022-09-14T04:18:35.577Z,75218.47
2022-09-14T04:21:08.458Z,75222.34
2022-09-14T04:23:46.170Z,75230.03
2022-09-14T04:26:26.234Z,75230.03
2022-09-14T04:28:53.774Z,75233.88
2022-09-14T04:31:20.620Z,75226.19
2022-09-14T04:33:49.396Z,75218.47
2022-09-14T04:36:21.422Z,75216.56
2022-09-14T04:38:52.160Z,75212.69
2022-09-14T04:41:21.024Z,75206.91
2022-09-14T04:43:50.600Z,75199.22
2022-09-14T04:46:20.636Z,75185.72
2022-09-14T04:48:48.158Z,75176.09
2022-09-14T04:51:22.021Z,75172.25
2022-09-14T04:53:51.208Z,75174.19
2022-09-14T04:56:19.608Z,75164.53
2022-09-14T04:58:51.588Z,75143.34
2022-09-14T05:01:24.670Z,75135.66
2022-09-14T05:03:52.290Z,75133.72
2022-09-14T05:06:21.482Z,75131.81
2022-09-14T05:08:49.345Z,75135.66
2022-09-14T05:11:19.951Z,75131.81
2022-09-14T05:13:49.918Z,75129.88
2022-09-14T05:16:20.196Z,75118.31
2022-09-14T05:18:47.760Z,75110.63
2022-09-14T05:21:17.019Z,75110.63
2022-09-14T05:23:44.668Z,75102.91
2022-09-14T05:26:12.113Z,75099.06
2022-09-14T05:28:39.277Z,75085.56
2022-09-14T05:31:08.073Z,75087.50
2022-09-14T05:33:35.695Z,75087.50
2022-09-14T05:36:05.534Z,75075.94
2022-09-14T05:38:34.043Z,75068.25
2022-09-14T05:41:01.548Z,75062.47
2022-09-14T05:43:29.218Z,75056.69
2022-09-14T05:45:56.504Z,75048.97
2022-09-14T05:48:23.244Z,75047.03
2022-09-14T05:50:57.546Z,75041.28
2022-09-14T05:53:24.204Z,75039.34
2022-09-14T05:56:00.123Z,75029.72
2022-09-14T05:58:27.547Z,75022.00
2022-09-14T06:00:54.200Z,74996.97
2022-09-14T06:03:20.922Z,74981.56
2022-09-14T06:05:47.734Z,74975.78
2022-09-14T06:08:14.444Z,74968.06
2022-09-14T06:10:41.288Z,74960.38
2022-09-14T06:13:07.996Z,74960.38
2022-09-14T06:15:34.863Z,74952.66
2022-09-14T06:18:01.665Z,74948.81
2022-09-14T06:20:28.319Z,74941.09
2022-09-14T06:22:55.607Z,74939.19
2022-09-14T06:25:22.319Z,74935.34
2022-09-14T06:27:49.044Z,74927.63
2022-09-14T06:30:16.512Z,74910.28
2022-09-14T06:32:43.172Z,74900.66
2022-09-14T06:35:12.454Z,74887.19
2022-09-14T06:37:39.414Z,74883.31
2022-09-14T06:40:06.647Z,74877.56
2022-09-14T06:42:33.361Z,74883.31
2022-09-14T06:45:00.031Z,74879.47
2022-09-14T06:47:32.313Z,74887.19
2022-09-14T06:49:59.192Z,74883.31
2022-09-14T06:52:25.853Z,74887.19
2022-09-14T06:54:52.576Z,74881.41
2022-09-14T06:57:19.227Z,74881.41
2022-09-14T06:59:46.076Z,74871.78
2022-09-14T07:02:14.091Z,74867.91
2022-09-14T07:04:40.839Z,74867.91
2022-09-14T07:07:07.758Z,74867.91
2022-09-14T07:09:34.478Z,74856.38
2022-09-14T07:12:01.343Z,74840.97
2022-09-14T07:14:32.035Z,74837.09
2022-09-14T07:16:59.128Z,74837.09
2022-09-14T07:19:25.770Z,74829.41
2022-09-14T07:21:54.646Z,74827.47
2022-09-14T07:24:21.651Z,74829.41
2022-09-14T07:26:48.871Z,74825.53
2022-09-14T07:29:20.200Z,74829.41
2022-09-14T07:31:52.648Z,74833.25
2022-09-14T07:34:19.756Z,74829.41
2022-09-14T07:36:46.750Z,74827.47
2022-09-14T07:39:16.280Z,74825.53
2022-09-14T07:41:43.556Z,74825.53
2022-09-14T07:44:14.624Z,74812.06
2022-09-14T07:46:43.299Z,74800.50
2022-09-14T07:49:11.327Z,74790.88
2022-09-14T07:51:39.065Z,74794.72
2022-09-14T07:54:07.423Z,74754.28
2022-09-14T07:56:35.127Z,74723.47
2022-09-14T07:59:30.836Z,74679.16
2022-09-14T08:01:50.128Z,74590.56
2022-09-14T08:04:17.060Z,74561.69
2022-09-14T08:06:43.949Z,74528.94
2022-09-14T08:09:10.678Z,74498.13
2022-09-14T08:11:38.250Z,74448.06
2022-09-14T08:14:09.723Z,74473.09
2022-09-14T08:16:38.700Z,74459.63
2022-09-14T08:19:07.659Z,74494.28
2022-09-14T08:21:35.677Z,74478.88
2022-09-14T08:24:04.321Z,74440.34
2022-09-14T08:26:32.048Z,74409.53
2022-09-14T08:29:03.054Z,74392.22
2022-09-14T08:31:29.766Z,74394.13
2022-09-14T08:34:02.723Z,74399.91
2022-09-14T08:36:31.956Z,74401.84
2022-09-14T08:38:59.277Z,74413.41
2022-09-14T08:41:43.853Z,74405.69
2022-09-14T08:44:27.225Z,74455.75
2022-09-14T08:46:58.884Z,74405.69
2022-09-14T08:50:02.798Z,74359.47
2022-09-14T08:52:38.697Z,74403.78
2022-09-14T08:55:17.599Z,74390.28
2022-09-14T08:57:50.008Z,74390.28
2022-09-14T09:00:23.501Z,74338.28
2022-09-14T09:02:58.981Z,74351.78
2022-09-14T09:05:38.450Z,74315.19
2022-09-14T09:08:11.871Z,74328.66
2022-09-14T09:10:40.553Z,74322.88
2022-09-14T09:13:10.714Z,74367.19
2022-09-14T09:16:00.309Z,74332.50
2022-09-14T09:19:07.951Z,74297.84
2022-09-14T09:21:45.384Z,74303.63
2022-09-14T09:24:41.135Z,74378.72
2022-09-14T09:27:12.792Z,74347.91
2022-09-14T09:29:39.501Z,74367.19
2022-09-14T09:32:15.454Z,74401.84
2022-09-14T09:34:48.350Z,74413.41
2022-09-14T09:37:26.989Z,74399.91
2022-09-14T09:39:54.751Z,74386.44
2022-09-14T09:42:22.702Z,74384.50
2022-09-14T09:45:03.231Z,74415.31
2022-09-14T09:47:32.649Z,74382.59
2022-09-14T09:50:02.153Z,74374.88
2022-09-14T09:52:30.400Z,74344.06
2022-09-14T09:54:58.509Z,74369.09
2022-09-14T09:57:36.834Z,74407.63
2022-09-14T10:00:13.341Z,74372.94
2022-09-14T10:02:41.719Z,74328.66
2022-09-14T10:05:11.168Z,74297.84
2022-09-14T10:07:49.827Z,74263.19
2022-09-14T10:10:19.656Z,74263.19
2022-09-14T10:12:55.907Z,74245.84
2022-09-14T10:15:29.328Z,74243.94
2022-09-14T10:18:11.525Z,74243.94
2022-09-14T10:20:54.719Z,74259.34
2022-09-14T10:23:21.415Z,74249.72
2022-09-14T10:25:50.968Z,74249.72
2022-09-14T10:28:28.098Z,74263.19
2022-09-14T10:31:18.288Z,74290.16
2022-09-14T10:33:54.266Z,74301.69
2022-09-14T10:36:31.658Z,74328.66
2022-09-14T10:39:16.758Z,74336.38
2022-09-14T10:42:02.350Z,74363.31
2022-09-14T10:45:09.898Z,74390.28
2022-09-14T10:48:16.778Z,74411.47
2022-09-14T10:50:58.726Z,74432.66
2022-09-14T10:53:34.439Z,74436.50
2022-09-14T10:56:05.837Z,74421.09
2022-09-14T10:58:35.736Z,74446.13
2022-09-14T11:01:27.171Z,74440.34
2022-09-14T11:03:56.800Z,74440.34
2022-09-14T11:06:39.819Z,74419.16
2022-09-14T11:09:25.201Z,74409.53
2022-09-14T11:12:25.272Z,74428.81
2022-09-14T11:15:08.406Z,74413.41
2022-09-14T11:18:23.329Z,74392.22
2022-09-14T11:20:52.723Z,74398.00
2022-09-14T11:23:37.705Z,74390.28
2022-09-14T11:26:12.457Z,74367.19
2022-09-14T11:28:44.999Z,74367.19
2022-09-14T11:31:22.310Z,74351.78
2022-09-14T11:34:14.357Z,74334.44
2022-09-14T11:36:46.106Z,74324.81
2022-09-14T11:39:36.926Z,74315.19
2022-09-14T11:42:12.677Z,74286.28
2022-09-14T11:44:42.399Z,74259.34
2022-09-14T11:47:17.674Z,74247.78
2022-09-14T11:49:59.909Z,74203.50
2022-09-14T11:52:27.482Z,74149.56
2022-09-14T11:54:54.835Z,74124.53
2022-09-14T11:57:27.764Z,74055.22
2022-09-14T12:00:23.848Z,74020.56
2022-09-14T12:03:05.358Z,73993.59
2022-09-14T12:05:33.456Z,73970.50
2022-09-14T12:08:23.483Z,73962.78
2022-09-14T12:11:24.460Z,73947.38
2022-09-14T12:14:14.924Z,73955.09
2022-09-14T12:20:27.160Z,73920.44
2022-09-14T12:23:13.934Z,73920.44
2022-09-14T12:25:58.408Z,73905.03
2022-09-14T12:28:37.312Z,73897.31
2022-09-14T12:31:04.109Z,73870.34
2022-09-14T12:33:33.569Z,73818.38
2022-09-14T12:36:05.758Z,73816.44
2022-09-14T12:38:32.371Z,73785.63
2022-09-14T12:41:00.129Z,73820.28
2022-09-14T12:43:35.727Z,73789.50
2022-09-14T12:46:03.848Z,73804.91
2022-09-14T12:48:48.932Z,73839.56
2022-09-14T12:51:31.538Z,73824.16
2022-09-14T12:53:58.176Z,73789.50
2022-09-14T12:56:37.131Z,73776.00
2022-09-14T12:59:12.745Z,73791.41
2022-09-14T13:02:01.939Z,73776.00
2022-09-14T13:04:38.327Z,73793.34
2022-09-14T13:07:07.742Z,73797.19
2022-09-14T13:09:34.752Z,73777.94
2022-09-14T13:12:04.919Z,73766.38
2022-09-14T13:14:47.211Z,73768.31
2022-09-14T13:17:16.233Z,73787.56
2022-09-14T13:19:43.477Z,73787.56
2022-09-14T13:22:19.770Z,73785.63
2022-09-14T13:24:48.509Z,73774.09
2022-09-14T13:27:22.158Z,73764.47
2022-09-14T13:29:56.882Z,73772.16
2022-09-14T13:32:23.690Z,73731.72
2022-09-14T13:34:50.608Z,73708.63
2022-09-14T13:37:17.537Z,73697.06
2022-09-14T13:39:51.320Z,73681.66
2022-09-14T13:42:18.811Z,73673.97
2022-09-14T13:44:46.827Z,73658.56
2022-09-14T13:47:16.980Z,73639.31
2022-09-14T13:49:45.129Z,73650.88
2022-09-14T13:52:21.651Z,73668.19
2022-09-14T13:55:09.931Z,73654.72
2022-09-14T13:57:37.200Z,73672.03
2022-09-14T14:00:20.537Z,73666.25
2022-09-14T14:02:53.038Z,73673.97
2022-09-14T14:05:29.990Z,73666.25
2022-09-14T14:08:00.987Z,73666.25
2022-09-14T14:10:34.731Z,73693.22
2022-09-14T14:13:02.576Z,73700.91
2022-09-14T14:15:43.555Z,73712.47
2022-09-14T14:18:32.378Z,73727.88
2022-09-14T14:21:30.290Z,73735.59
2022-09-14T14:24:26.001Z,73720.19
2022-09-14T14:26:55.131Z,73712.47
2022-09-14T14:29:22.359Z,73704.78
2022-09-14T14:31:50.319Z,73697.06
2022-09-14T14:34:29.763Z,73689.38
2022-09-14T14:36:56.710Z,73677.81
2022-09-14T14:39:25.274Z,73681.66
2022-09-14T14:41:52.751Z,73697.06
2022-09-14T14:44:23.258Z,73729.81
2022-09-14T14:46:50.055Z,73731.72
2022-09-14T14:49:20.418Z,73739.44
2022-09-14T14:51:48.133Z,73750.97
2022-09-14T14:54:18.833Z,73758.69
2022-09-14T14:56:50.745Z,73754.84
2022-09-14T14:59:17.436Z,73739.44
2022-09-14T15:01:44.170Z,73743.28
2022-09-14T15:04:11.022Z,73735.59
2022-09-14T15:06:37.849Z,73729.81
2022-09-14T15:09:12.775Z,73733.66
2022-09-14T15:11:41.044Z,73735.59
2022-09-14T15:14:19.050Z,73747.13
2022-09-14T15:16:47.116Z,73743.28
2022-09-14T15:19:14.792Z,73735.59
2022-09-14T15:21:42.793Z,73735.59
2022-09-14T15:24:11.189Z,73743.28
2022-09-14T15:26:38.380Z,73750.97
2022-09-14T15:29:05.967Z,73758.69
2022-09-14T15:31:33.095Z,73766.38
2022-09-14T15:34:00.183Z,73777.94
2022-09-14T15:36:44.217Z,73789.50
2022-09-14T15:39:13.733Z,73797.19
2022-09-14T15:41:41.269Z,73802.97
2022-09-14T15:44:08.301Z,73814.53
2022-09-14T15:46:35.221Z,73812.59
2022-09-14T15:49:05.775Z,73824.16
2022-09-14T15:51:35.310Z,73831.84
2022-09-14T15:54:02.330Z,73831.84
2022-09-14T15:56:29.319Z,73839.56
2022-09-14T15:59:01.011Z,73839.56
2022-09-14T16:01:28.431Z,73831.84
2022-09-14T16:03:59.963Z,73837.63
2022-09-14T16:06:27.223Z,73833.78
2022-09-14T16:08:54.943Z,73831.84
2022-09-14T16:11:22.223Z,73835.69
2022-09-14T16:13:50.807Z,73831.84
2022-09-14T16:16:19.701Z,73831.84
2022-09-14T16:18:49.195Z,73831.84
2022-09-14T16:21:19.683Z,73831.84
2022-09-14T16:23:55.450Z,73835.69
2022-09-14T16:26:24.748Z,73839.56
2022-09-14T16:28:52.774Z,73841.47
2022-09-14T16:31:25.819Z,73845.34
2022-09-14T16:33:55.396Z,73843.41
2022-09-14T16:36:26.043Z,73854.97
2022-09-14T16:38:55.871Z,73866.50
2022-09-14T16:41:22.640Z,73874.22
2022-09-14T16:43:55.418Z,73876.13
2022-09-14T16:46:22.826Z,73885.75
2022-09-14T16:48:50.379Z,73889.63
2022-09-14T16:51:19.651Z,73891.53
2022-09-14T16:53:47.542Z,73891.53
2022-09-14T16:56:30.082Z,73912.72
2022-09-14T16:58:57.980Z,73916.56
2022-09-14T17:01:31.067Z,73920.44
2022-09-14T17:04:09.602Z,73920.44
2022-09-14T17:06:38.410Z,73924.28
2022-09-14T17:09:08.656Z,73928.13
2022-09-14T17:11:37.251Z,73928.13
2022-09-14T17:14:04.984Z,73924.28
2022-09-14T17:16:32.121Z,73920.44
2022-09-14T17:19:02.047Z,73926.19
2022-09-14T17:21:32.806Z,73935.84
2022-09-14T17:24:00.322Z,73939.69
2022-09-14T17:26:27.294Z,73951.22
2022-09-14T17:28:56.898Z,73949.31
2022-09-14T17:31:27.217Z,73955.09
2022-09-14T17:33:56.373Z,73962.78
2022-09-14T17:36:23.302Z,73968.56
2022-09-14T17:38:50.404Z,73974.34
2022-09-14T17:41:22.827Z,73982.03
2022-09-14T17:43:55.135Z,73999.38
2022-09-14T17:46:22.611Z,74012.84
2022-09-14T17:48:50.414Z,74020.56
2022-09-14T17:51:23.396Z,74035.97
2022-09-14T17:53:53.143Z,74041.72
2022-09-14T17:56:22.224Z,74039.81
2022-09-14T17:58:58.521Z,74059.06
2022-09-14T18:01:25.890Z,74064.84
2022-09-14T18:03:55.631Z,74068.69
2022-09-14T18:06:25.930Z,74068.69
2022-09-14T18:08:58.275Z,74061.00
2022-09-14T18:11:25.123Z,74070.63
2022-09-14T18:13:52.272Z,74082.16
2022-09-14T18:16:20.982Z,74093.72
2022-09-14T18:18:49.388Z,74093.72
2022-09-14T18:21:18.556Z,74101.44
2022-09-14T18:23:50.175Z,74107.22
2022-09-14T18:26:17.469Z,74107.22
2022-09-14T18:28:44.789Z,74109.13
2022-09-14T18:31:13.952Z,74122.63
2022-09-14T18:33:48.633Z,74122.63
2022-09-14T18:36:15.420Z,74132.25
2022-09-14T18:38:42.762Z,74132.25
2022-09-14T18:41:11.623Z,74139.94
2022-09-14T18:43:38.505Z,74143.78
2022-09-14T18:46:08.486Z,74149.56
2022-09-14T18:48:35.477Z,74145.72
2022-09-14T18:51:04.815Z,74147.66
2022-09-14T18:53:32.191Z,74155.34
2022-09-14T18:56:09.201Z,74132.25
2022-09-14T18:58:39.904Z,74132.25
2022-09-14T19:01:08.002Z,74143.78
2022-09-14T19:03:37.048Z,74153.41
2022-09-14T19:06:06.604Z,74157.28
2022-09-14T19:08:33.781Z,74157.28
2022-09-14T19:11:06.081Z,74147.66
2022-09-14T19:13:32.984Z,74136.09
2022-09-14T19:15:59.739Z,74138.00
2022-09-14T19:18:26.457Z,74153.41
2022-09-14T19:21:06.202Z,74155.34
2022-09-14T19:23:33.299Z,74151.50
2022-09-14T19:26:15.156Z,74147.66
2022-09-14T19:28:42.626Z,74145.72
2022-09-14T19:31:15.191Z,74132.25
2022-09-14T19:33:45.447Z,74124.53
2022-09-14T19:36:15.255Z,74120.69
2022-09-14T19:38:42.330Z,74136.09
2022-09-14T19:41:10.330Z,74139.94
2022-09-14T19:43:37.264Z,74159.19
2022-09-14T19:46:09.103Z,74186.16
2022-09-14T19:48:36.587Z,74201.56
2022-09-14T19:51:06.559Z,74216.97
2022-09-14T19:53:35.455Z,74243.94
2022-09-14T19:56:11.694Z,74278.59
2022-09-14T19:58:44.900Z,74328.66
2022-09-14T20:01:11.767Z,74374.88
2022-09-14T20:03:39.741Z,74407.63
2022-09-14T20:06:08.285Z,74440.34
2022-09-14T20:08:35.482Z,74467.31
2022-09-14T20:11:07.439Z,74482.72
2022-09-14T20:13:35.110Z,74478.88
2022-09-14T20:16:28.737Z,74482.72
2022-09-14T20:18:57.208Z,74476.94
2022-09-14T20:21:25.458Z,74478.88
2022-09-14T20:24:16.045Z,74478.88
2022-09-14T20:26:45.308Z,74478.88
2022-09-14T20:29:12.281Z,74463.47
2022-09-14T20:31:39.181Z,74440.34
2022-09-14T20:34:06.090Z,74392.22
2022-09-14T20:36:33.307Z,74365.25
2022-09-14T20:39:00.384Z,74359.47
2022-09-14T20:41:30.232Z,74365.25
2022-09-14T20:43:57.887Z,74363.31
2022-09-14T20:46:31.751Z,74367.19
2022-09-14T20:48:58.785Z,74355.63
2022-09-14T20:51:25.923Z,74349.84
2022-09-14T20:53:53.029Z,74347.91
2022-09-14T20:56:24.906Z,74340.22
2022-09-14T20:58:55.025Z,74336.38
2022-09-14T21:01:23.475Z,74344.06
2022-09-14T21:03:50.483Z,74344.06
2022-09-14T21:06:22.799Z,74351.78
2022-09-14T21:08:50.007Z,74344.06
2022-09-14T21:11:22.863Z,74340.22
2022-09-14T21:13:51.426Z,74342.16
2022-09-14T21:16:25.465Z,74340.22
2022-09-14T21:19:01.232Z,74326.75
2022-09-14T21:21:29.172Z,74332.50
2022-09-14T21:23:57.587Z,74346.00
2022-09-14T21:26:27.904Z,74347.91
2022-09-14T21:28:59.410Z,74355.63
2022-09-14T21:31:28.721Z,74357.56
2022-09-14T21:34:01.734Z,74357.56
2022-09-14T21:36:34.538Z,74365.25
2022-09-14T21:39:11.135Z,74363.31
2022-09-14T21:41:39.606Z,74359.47
2022-09-14T21:44:06.341Z,74363.31
2022-09-14T21:46:33.742Z,74363.31
2022-09-14T21:49:00.648Z,74372.94
2022-09-14T21:51:30.558Z,74367.19
2022-09-14T21:54:05.782Z,74359.47
2022-09-14T21:56:36.905Z,74369.09
2022-09-14T21:59:07.059Z,74372.94
2022-09-14T22:01:34.552Z,74374.88
2022-09-14T22:04:02.385Z,74382.59
2022-09-14T22:06:30.802Z,74374.88
2022-09-14T22:08:59.986Z,74374.88
2022-09-14T22:11:33.204Z,74374.88
2022-09-14T22:14:02.969Z,74374.88
2022-09-14T22:16:35.160Z,74378.72
2022-09-14T22:19:08.809Z,74376.81
2022-09-14T22:21:38.176Z,74378.72
2022-09-14T22:24:08.107Z,74390.28
2022-09-14T22:26:35.866Z,74390.28
2022-09-14T22:29:02.832Z,74392.22
2022-09-14T22:31:31.671Z,74392.22
2022-09-14T22:33:59.618Z,74386.44
2022-09-14T22:36:27.168Z,74386.44
2022-09-14T22:38:58.689Z,74380.66
2022-09-14T22:41:26.782Z,74374.88
2022-09-14T22:43:54.440Z,74371.03
2022-09-14T22:46:22.641Z,74371.03
2022-09-14T22:48:50.551Z,74376.81
2022-09-14T22:51:21.695Z,74386.44
2022-09-14T22:53:49.243Z,74386.44
2022-09-14T22:56:17.437Z,74396.06
2022-09-14T22:58:45.244Z,74401.84
2022-09-14T23:01:14.854Z,74405.69
2022-09-14T23:03:41.683Z,74413.41
2022-09-14T23:06:08.931Z,74413.41
2022-09-14T23:08:36.346Z,74405.69
2022-09-14T23:11:08.202Z,74392.22
2022-09-14T23:13:36.060Z,74392.22
2022-09-14T23:16:12.859Z,74390.28
2022-09-14T23:18:39.774Z,74396.06
2022-09-14T23:21:06.785Z,74398.00
2022-09-14T23:23:34.510Z,74403.78
2022-09-14T23:26:07.108Z,74403.78
2022-09-14T23:28:34.615Z,74405.69
2022-09-14T23:31:02.102Z,74417.25
2022-09-14T23:33:29.861Z,74413.41
2022-09-14T23:35:57.031Z,74417.25
2022-09-14T23:38:24.191Z,74419.16
2022-09-14T23:40:51.287Z,74417.25
2022-09-14T23:43:19.250Z,74411.47
2022-09-14T23:45:47.499Z,74413.41
2022-09-14T23:48:15.138Z,74417.25
2022-09-14T23:50:41.824Z,74421.09
2022-09-14T23:53:08.536Z,74426.88
2022-09-14T23:55:35.714Z,74417.25
2022-09-14T23:58:02.598Z,74413.41
